sensor_id;sensor_type;location;lat;lon;timestamp;pressure;altitude;pressure_sealevel;temperature;humidity
22753;BME280;11543;43.144;24.684;2023-04-24T00:01:13;98486.44;;;12.62;59.93
22753;BME280;11543;43.144;24.684;2023-04-24T00:03:40;98489.03;;;12.48;59.62
22753;BME280;11543;43.144;24.684;2023-04-24T00:06:06;98487.66;;;12.21;59.67
22753;BME280;11543;43.144;24.684;2023-04-24T00:08:34;98496.72;;;12.11;60.13
22753;BME280;11543;43.144;24.684;2023-04-24T00:11:00;98498.94;;;12.08;60.96
22753;BME280;11543;43.144;24.684;2023-04-24T00:13:25;98487.81;;;12.11;61.21
22753;BME280;11543;43.144;24.684;2023-04-24T00:15:53;98483.28;;;12.11;61.01
22753;BME280;11543;43.144;24.684;2023-04-24T00:18:19;98491.00;;;12.23;60.93
22753;BME280;11543;43.144;24.684;2023-04-24T00:20:45;98500.72;;;12.32;60.93
22753;BME280;11543;43.144;24.684;2023-04-24T00:23:10;98490.97;;;12.31;60.84
22753;BME280;11543;43.144;24.684;2023-04-24T00:25:35;98494.94;;;12.43;60.71
22753;BME280;11543;43.144;24.684;2023-04-24T00:28:01;98496.94;;;12.49;60.37
22753;BME280;11543;43.144;24.684;2023-04-24T00:30:27;98504.41;;;12.31;60.25
22753;BME280;11543;43.144;24.684;2023-04-24T00:32:53;98496.56;;;12.13;60.53
22753;BME280;11543;43.144;24.684;2023-04-24T00:35:18;98504.66;;;12.05;61.08
22753;BME280;11543;43.144;24.684;2023-04-24T00:37:45;98499.50;;;11.87;61.92
22753;BME280;11543;43.144;24.684;2023-04-24T00:40:10;98506.53;;;11.96;62.17
22753;BME280;11543;43.144;24.684;2023-04-24T00:42:36;98502.97;;;12.04;61.87
22753;BME280;11543;43.144;24.684;2023-04-24T00:45:02;98505.13;;;12.08;61.46
22753;BME280;11543;43.144;24.684;2023-04-24T00:47:28;98509.19;;;12.04;61.71
22753;BME280;11543;43.144;24.684;2023-04-24T00:49:55;98508.16;;;12.13;61.87
22753;BME280;11543;43.144;24.684;2023-04-24T00:52:20;98500.09;;;12.22;61.43
22753;BME280;11543;43.144;24.684;2023-04-24T00:54:49;98500.22;;;12.28;61.42
22753;BME280;11543;43.144;24.684;2023-04-24T00:57:15;98493.66;;;12.31;61.49
22753;BME280;11543;43.144;24.684;2023-04-24T00:59:42;98506.78;;;12.26;61.86
22753;BME280;11543;43.144;24.684;2023-04-24T01:02:09;98492.34;;;12.10;61.63
22753;BME280;11543;43.144;24.684;2023-04-24T01:04:36;98498.75;;;12.18;61.46
22753;BME280;11543;43.144;24.684;2023-04-24T01:07:01;98493.88;;;12.21;61.54
22753;BME280;11543;43.144;24.684;2023-04-24T01:09:27;98498.69;;;12.34;61.74
22753;BME280;11543;43.144;24.684;2023-04-24T01:11:53;98490.28;;;12.37;61.38
22753;BME280;11543;43.144;24.684;2023-04-24T01:14:19;98499.66;;;12.41;61.56
22753;BME280;11543;43.144;24.684;2023-04-24T01:16:45;98495.34;;;12.32;61.45
22753;BME280;11543;43.144;24.684;2023-04-24T01:19:11;98503.38;;;12.40;61.52
22753;BME280;11543;43.144;24.684;2023-04-24T01:21:39;98500.56;;;12.25;61.47
22753;BME280;11543;43.144;24.684;2023-04-24T01:24:07;98515.88;;;12.25;61.98
22753;BME280;11543;43.144;24.684;2023-04-24T01:26:33;98500.56;;;12.25;61.88
22753;BME280;11543;43.144;24.684;2023-04-24T01:28:59;98496.53;;;12.29;62.17
22753;BME280;11543;43.144;24.684;2023-04-24T01:31:24;98493.66;;;12.31;61.78
22753;BME280;11543;43.144;24.684;2023-04-24T01:33:51;98506.22;;;12.38;61.80
22753;BME280;11543;43.144;24.684;2023-04-24T01:36:18;98494.28;;;12.41;61.74
22753;BME280;11543;43.144;24.684;2023-04-24T01:38:44;98484.94;;;12.29;62.15
22753;BME280;11543;43.144;24.684;2023-04-24T01:41:10;98477.22;;;12.26;62.36
22753;BME280;11543;43.144;24.684;2023-04-24T01:43:35;98462.00;;;12.41;61.78
22753;BME280;11543;43.144;24.684;2023-04-24T01:46:01;98464.00;;;12.47;61.49
22753;BME280;11543;43.144;24.684;2023-04-24T01:48:26;98454.25;;;12.46;61.61
22753;BME280;11543;43.144;24.684;2023-04-24T01:50:56;98446.66;;;12.50;61.21
22753;BME280;11543;43.144;24.684;2023-04-24T01:53:21;98446.47;;;12.51;61.22
22753;BME280;11543;43.144;24.684;2023-04-24T01:55:47;98434.22;;;12.49;61.00
22753;BME280;11543;43.144;24.684;2023-04-24T01:58:12;98425.13;;;12.50;60.78
22753;BME280;11543;43.144;24.684;2023-04-24T02:00:38;98441.41;;;12.56;60.74
22753;BME280;11543;43.144;24.684;2023-04-24T02:03:04;98435.84;;;12.58;60.10
22753;BME280;11543;43.144;24.684;2023-04-24T02:05:29;98435.47;;;12.61;59.88
22753;BME280;11543;43.144;24.684;2023-04-24T02:07:55;98423.41;;;12.57;60.02
22753;BME280;11543;43.144;24.684;2023-04-24T02:10:20;98425.56;;;12.61;59.69
22753;BME280;11543;43.144;24.684;2023-04-24T02:12:46;98420.16;;;12.61;59.57
22753;BME280;11543;43.144;24.684;2023-04-24T02:15:11;98418.97;;;12.64;59.64
22753;BME280;11543;43.144;24.684;2023-04-24T02:17:37;98422.31;;;12.66;59.54
22753;BME280;11543;43.144;24.684;2023-04-24T02:20:03;98418.50;;;12.60;59.86
22753;BME280;11543;43.144;24.684;2023-04-24T02:22:29;98420.94;;;12.47;59.63
22753;BME280;11543;43.144;24.684;2023-04-24T02:24:55;98426.94;;;12.26;59.82
22753;BME280;11543;43.144;24.684;2023-04-24T02:27:21;98431.88;;;12.06;60.91
22753;BME280;11543;43.144;24.684;2023-04-24T02:29:46;98422.53;;;11.94;61.29
22753;BME280;11543;43.144;24.684;2023-04-24T02:32:12;98422.88;;;11.91;61.34
22753;BME280;11543;43.144;24.684;2023-04-24T02:34:38;98412.88;;;12.08;61.40
22753;BME280;11543;43.144;24.684;2023-04-24T02:37:03;98413.06;;;12.15;61.13
22753;BME280;11543;43.144;24.684;2023-04-24T02:39:29;98413.31;;;12.28;61.33
22753;BME280;11543;43.144;24.684;2023-04-24T02:41:54;98413.94;;;12.38;61.01
22753;BME280;11543;43.144;24.684;2023-04-24T02:44:19;98409.88;;;12.42;61.07
22753;BME280;11543;43.144;24.684;2023-04-24T02:46:46;98405.81;;;12.46;61.04
22753;BME280;11543;43.144;24.684;2023-04-24T02:49:12;98419.56;;;12.51;60.96
22753;BME280;11543;43.144;24.684;2023-04-24T02:51:37;98421.25;;;12.52;60.75
22753;BME280;11543;43.144;24.684;2023-04-24T02:54:07;98425.25;;;12.56;60.93
22753;BME280;11543;43.144;24.684;2023-04-24T02:56:32;98429.97;;;12.54;60.75
22753;BME280;11543;43.144;24.684;2023-04-24T02:58:58;98435.84;;;12.58;60.85
22753;BME280;11543;43.144;24.684;2023-04-24T03:01:23;98425.91;;;12.58;60.67
22753;BME280;11543;43.144;24.684;2023-04-24T03:03:49;98425.91;;;12.58;60.69
22753;BME280;11543;43.144;24.684;2023-04-24T03:06:14;98438.84;;;12.63;60.64
22753;BME280;11543;43.144;24.684;2023-04-24T03:08:40;98429.91;;;12.62;60.44
22753;BME280;11543;43.144;24.684;2023-04-24T03:11:06;98436.44;;;12.68;60.37
22753;BME280;11543;43.144;24.684;2023-04-24T03:13:31;98448.22;;;12.67;60.40
22753;BME280;11543;43.144;24.684;2023-04-24T03:15:57;98432.63;;;12.62;60.32
22753;BME280;11543;43.144;24.684;2023-04-24T03:18:22;98436.44;;;12.68;60.42
22753;BME280;11543;43.144;24.684;2023-04-24T03:20:48;98433.56;;;12.69;60.15
22753;BME280;11543;43.144;24.684;2023-04-24T03:23:13;98417.78;;;12.66;60.29
22753;BME280;11543;43.144;24.684;2023-04-24T03:25:39;98428.00;;;12.71;60.53
22753;BME280;11543;43.144;24.684;2023-04-24T03:28:05;98425.91;;;12.58;60.67
22753;BME280;11543;43.144;24.684;2023-04-24T03:30:31;98431.03;;;12.45;61.06
22753;BME280;11543;43.144;24.684;2023-04-24T03:32:56;98437.31;;;12.37;61.69
22753;BME280;11543;43.144;24.684;2023-04-24T03:35:22;98447.63;;;12.26;62.49
22753;BME280;11543;43.144;24.684;2023-04-24T03:37:48;98467.81;;;12.22;62.71
22753;BME280;11543;43.144;24.684;2023-04-24T03:40:13;98463.13;;;12.16;63.56
22753;BME280;11543;43.144;24.684;2023-04-24T03:42:38;98464.28;;;12.13;64.22
22753;BME280;11543;43.144;24.684;2023-04-24T03:45:04;98458.72;;;12.23;64.00
22753;BME280;11543;43.144;24.684;2023-04-24T03:47:30;98462.25;;;12.23;64.01
22753;BME280;11543;43.144;24.684;2023-04-24T03:49:56;98466.13;;;12.21;63.79
22753;BME280;11543;43.144;24.684;2023-04-24T03:52:21;98471.66;;;12.27;63.99
22753;BME280;11543;43.144;24.684;2023-04-24T03:54:47;98475.72;;;12.23;64.20
22753;BME280;11543;43.144;24.684;2023-04-24T03:57:12;98471.16;;;12.24;64.31
22753;BME280;11543;43.144;24.684;2023-04-24T03:59:37;98469.31;;;12.24;64.19
22753;BME280;11543;43.144;24.684;2023-04-24T04:02:03;98476.19;;;12.27;64.68
22753;BME280;11543;43.144;24.684;2023-04-24T04:04:28;98480.28;;;12.06;65.25
22753;BME280;11543;43.144;24.684;2023-04-24T04:06:54;98469.53;;;12.06;65.48
22753;BME280;11543;43.144;24.684;2023-04-24T04:09:19;98476.94;;;12.04;66.02
22753;BME280;11543;43.144;24.684;2023-04-24T04:11:45;98475.56;;;12.17;66.06
22753;BME280;11543;43.144;24.684;2023-04-24T04:14:10;98489.66;;;12.27;66.38
22753;BME280;11543;43.144;24.684;2023-04-24T04:16:36;98490.59;;;12.42;65.99
22753;BME280;11543;43.144;24.684;2023-04-24T04:19:02;98484.50;;;12.48;65.51
22753;BME280;11543;43.144;24.684;2023-04-24T04:21:28;98492.53;;;12.56;65.11
22753;BME280;11543;43.144;24.684;2023-04-24T04:23:55;98490.63;;;12.65;64.99
22753;BME280;11543;43.144;24.684;2023-04-24T04:26:22;98508.72;;;12.79;64.51
22753;BME280;11543;43.144;24.684;2023-04-24T04:28:51;98510.34;;;12.88;64.12
22753;BME280;11543;43.144;24.684;2023-04-24T04:31:16;98510.16;;;12.90;63.99
22753;BME280;11543;43.144;24.684;2023-04-24T04:33:42;98512.31;;;12.94;64.05
22753;BME280;11543;43.144;24.684;2023-04-24T04:36:08;98523.38;;;12.99;64.07
22753;BME280;11543;43.144;24.684;2023-04-24T04:38:34;98513.78;;;13.05;63.88
22753;BME280;11543;43.144;24.684;2023-04-24T04:41:00;98513.78;;;13.05;63.89
22753;BME280;11543;43.144;24.684;2023-04-24T04:43:25;98507.34;;;13.14;64.79
22753;BME280;11543;43.144;24.684;2023-04-24T04:45:52;98495.59;;;13.07;64.95
22753;BME280;11543;43.144;24.684;2023-04-24T04:48:19;98506.16;;;13.17;65.21
22753;BME280;11543;43.144;24.684;2023-04-24T04:50:45;98513.72;;;13.21;65.37
22753;BME280;11543;43.144;24.684;2023-04-24T04:53:10;98512.03;;;13.20;65.29
22753;BME280;11543;43.144;24.684;2023-04-24T04:55:37;98501.25;;;13.20;65.67
22753;BME280;11543;43.144;24.684;2023-04-24T04:58:02;98511.66;;;13.23;65.91
22753;BME280;11543;43.144;24.684;2023-04-24T05:00:28;98505.56;;;13.29;65.84
22753;BME280;11543;43.144;24.684;2023-04-24T05:02:59;98495.50;;;13.23;66.27
22753;BME280;11543;43.144;24.684;2023-04-24T05:05:26;98491.13;;;13.22;66.43
22753;BME280;11543;43.144;24.684;2023-04-24T05:07:51;98507.59;;;13.27;66.86
22753;BME280;11543;43.144;24.684;2023-04-24T05:10:17;98505.56;;;13.29;67.10
22753;BME280;11543;43.144;24.684;2023-04-24T05:12:42;98507.97;;;13.24;67.19
22753;BME280;11543;43.144;24.684;2023-04-24T05:15:11;98516.34;;;13.29;67.64
22753;BME280;11543;43.144;24.684;2023-04-24T05:17:37;98510.94;;;13.29;67.94
22753;BME280;11543;43.144;24.684;2023-04-24T05:20:03;98503.53;;;13.31;67.87
22753;BME280;11543;43.144;24.684;2023-04-24T05:22:32;98504.84;;;13.35;67.88
22753;BME280;11543;43.144;24.684;2023-04-24T05:25:01;98513.22;;;13.41;67.79
22753;BME280;11543;43.144;24.684;2023-04-24T05:27:27;98514.88;;;13.42;68.05
22753;BME280;11543;43.144;24.684;2023-04-24T05:29:52;98518.59;;;13.41;68.91
22753;BME280;11543;43.144;24.684;2023-04-24T05:32:18;98524.66;;;13.43;69.58
22753;BME280;11543;43.144;24.684;2023-04-24T05:34:43;98516.69;;;13.26;72.78
22753;BME280;11543;43.144;24.684;2023-04-24T05:37:09;98506.66;;;13.20;74.07
22753;BME280;11543;43.144;24.684;2023-04-24T05:39:35;98505.19;;;13.32;73.24
22753;BME280;11543;43.144;24.684;2023-04-24T05:42:02;98503.16;;;13.34;73.07
22753;BME280;11543;43.144;24.684;2023-04-24T05:44:28;98497.06;;;13.41;73.37
22753;BME280;11543;43.144;24.684;2023-04-24T05:46:53;98497.22;;;13.39;73.56
22753;BME280;11543;43.144;24.684;2023-04-24T05:49:21;98501.31;;;13.35;74.38
22753;BME280;11543;43.144;24.684;2023-04-24T05:51:46;98489.75;;;13.26;75.25
22753;BME280;11543;43.144;24.684;2023-04-24T05:54:13;98494.41;;;13.32;75.52
22753;BME280;11543;43.144;24.684;2023-04-24T05:56:39;98495.72;;;13.36;76.31
22753;BME280;11543;43.144;24.684;2023-04-24T05:59:06;98490.63;;;13.42;76.51
22753;BME280;11543;43.144;24.684;2023-04-24T06:01:32;98495.97;;;13.50;76.65
22753;BME280;11543;43.144;24.684;2023-04-24T06:03:58;98491.03;;;13.53;76.92
22753;BME280;11543;43.144;24.684;2023-04-24T06:06:24;98492.09;;;13.67;77.01
22753;BME280;11543;43.144;24.684;2023-04-24T06:08:49;98486.53;;;13.83;77.12
22753;BME280;11543;43.144;24.684;2023-04-24T06:11:15;98489.16;;;13.91;76.96
22753;BME280;11543;43.144;24.684;2023-04-24T06:13:41;98482.09;;;13.90;77.65
22753;BME280;11543;43.144;24.684;2023-04-24T06:16:06;98482.00;;;13.98;77.90
22753;BME280;11543;43.144;24.684;2023-04-24T06:18:32;98477.38;;;14.07;77.91
22753;BME280;11543;43.144;24.684;2023-04-24T06:20:57;98473.72;;;14.15;78.29
22753;BME280;11543;43.144;24.684;2023-04-24T06:23:22;98482.66;;;14.30;78.16
22753;BME280;11543;43.144;24.684;2023-04-24T06:25:48;98469.53;;;14.27;78.22
22753;BME280;11543;43.144;24.684;2023-04-24T06:28:14;98466.09;;;14.33;78.49
22753;BME280;11543;43.144;24.684;2023-04-24T06:30:39;98467.19;;;14.39;78.60
22753;BME280;11543;43.144;24.684;2023-04-24T06:33:05;98470.38;;;14.42;78.50
22753;BME280;11543;43.144;24.684;2023-04-24T06:35:30;98465.25;;;14.47;78.95
22753;BME280;11543;43.144;24.684;2023-04-24T06:37:56;98470.53;;;14.55;78.71
22753;BME280;11543;43.144;24.684;2023-04-24T06:40:22;98462.63;;;14.54;78.40
22753;BME280;11543;43.144;24.684;2023-04-24T06:42:47;98461.03;;;14.59;78.42
22753;BME280;11543;43.144;24.684;2023-04-24T06:45:13;98476.00;;;14.62;78.81
22753;BME280;11543;43.144;24.684;2023-04-24T06:47:38;98472.75;;;14.66;78.74
22753;BME280;11543;43.144;24.684;2023-04-24T06:50:04;98468.75;;;14.77;78.86
22753;BME280;11543;43.144;24.684;2023-04-24T06:52:30;98470.09;;;14.88;79.06
22753;BME280;11543;43.144;24.684;2023-04-24T06:55:02;98484.78;;;15.00;79.49
22753;BME280;11543;43.144;24.684;2023-04-24T06:57:28;98458.16;;;14.97;79.21
22753;BME280;11543;43.144;24.684;2023-04-24T06:59:54;98459.25;;;15.03;78.83
22753;BME280;11543;43.144;24.684;2023-04-24T07:02:19;98462.00;;;15.09;78.85
22753;BME280;11543;43.144;24.684;2023-04-24T07:04:45;98465.81;;;15.15;78.64
22753;BME280;11543;43.144;24.684;2023-04-24T07:07:13;98454.53;;;15.11;78.14
22753;BME280;11543;43.144;24.684;2023-04-24T07:09:39;98467.53;;;15.22;78.25
22753;BME280;11543;43.144;24.684;2023-04-24T07:12:10;98460.72;;;15.26;77.77
22753;BME280;11543;43.144;24.684;2023-04-24T07:14:36;98468.69;;;15.35;77.38
22753;BME280;11543;43.144;24.684;2023-04-24T07:17:03;98443.06;;;15.30;77.23
22753;BME280;11543;43.144;24.684;2023-04-24T07:19:28;98444.81;;;15.38;77.05
22753;BME280;11543;43.144;24.684;2023-04-24T07:21:54;98441.66;;;15.35;76.96
22753;BME280;11543;43.144;24.684;2023-04-24T07:24:20;98452.31;;;15.43;77.22
22753;BME280;11543;43.144;24.684;2023-04-24T07:26:46;98444.66;;;15.46;77.57
22753;BME280;11543;43.144;24.684;2023-04-24T07:29:12;98444.50;;;15.54;77.41
22753;BME280;11543;43.144;24.684;2023-04-24T07:31:37;98447.78;;;15.65;77.80
22753;BME280;11543;43.144;24.684;2023-04-24T07:34:04;98455.59;;;15.81;78.61
22753;BME280;11543;43.144;24.684;2023-04-24T07:36:30;98455.47;;;15.96;78.52
22753;BME280;11543;43.144;24.684;2023-04-24T07:38:55;98454.06;;;16.06;78.41
22753;BME280;11543;43.144;24.684;2023-04-24T07:41:22;98442.88;;;16.16;78.54
22753;BME280;11543;43.144;24.684;2023-04-24T07:43:49;98445.25;;;16.32;79.57
22753;BME280;11543;43.144;24.684;2023-04-24T07:46:15;98443.44;;;16.46;80.26
22753;BME280;11543;43.144;24.684;2023-04-24T07:48:40;98454.41;;;16.66;80.40
22753;BME280;11543;43.144;24.684;2023-04-24T08:22:37;98434.06;;;19.04;77.98
22753;BME280;11543;43.144;24.684;2023-04-24T08:25:04;98424.25;;;19.35;76.31
22753;BME280;11543;43.144;24.684;2023-04-24T08:27:36;98424.81;;;19.68;73.89
22753;BME280;11543;43.144;24.684;2023-04-24T08:30:03;98430.94;;;20.07;71.36
22753;BME280;11543;43.144;24.684;2023-04-24T08:32:31;98439.97;;;20.44;68.82
22753;BME280;11543;43.144;24.684;2023-04-24T08:56:49;98419.47;;;22.08;58.14
22753;BME280;11543;43.144;24.684;2023-04-24T09:03:00;98423.34;;;22.24;55.51
22753;BME280;11543;43.144;24.684;2023-04-24T09:19:39;98408.47;;;22.83;49.48
22753;BME280;11543;43.144;24.684;2023-04-24T09:22:28;98407.75;;;22.88;47.60
22753;BME280;11543;43.144;24.684;2023-04-24T09:25:07;98397.78;;;22.82;47.17
22753;BME280;11543;43.144;24.684;2023-04-24T09:27:44;98396.25;;;23.03;46.43
22753;BME280;11543;43.144;24.684;2023-04-24T09:30:12;98401.47;;;23.04;47.42
22753;BME280;11543;43.144;24.684;2023-04-24T09:32:37;98402.16;;;23.28;46.47
22753;BME280;11543;43.144;24.684;2023-04-24T09:35:11;98405.56;;;23.35;47.57
22753;BME280;11543;43.144;24.684;2023-04-24T09:37:42;98399.88;;;23.54;45.38
22753;BME280;11543;43.144;24.684;2023-04-24T09:40:19;98394.91;;;23.50;45.87
22753;BME280;11543;43.144;24.684;2023-04-24T09:42:57;98386.13;;;23.48;46.41
22753;BME280;11543;43.144;24.684;2023-04-24T09:46:05;98386.19;;;23.54;46.06
22753;BME280;11543;43.144;24.684;2023-04-24T09:52:33;98384.81;;;23.68;44.74
22753;BME280;11543;43.144;24.684;2023-04-24T09:59:25;98399.06;;;23.87;43.50
22753;BME280;11543;43.144;24.684;2023-04-24T10:01:50;98385.44;;;23.75;42.91
22753;BME280;11543;43.144;24.684;2023-04-24T10:06:52;98378.50;;;23.67;42.44
22753;BME280;11543;43.144;24.684;2023-04-24T10:09:39;98361.91;;;23.57;41.89
22753;BME280;11543;43.144;24.684;2023-04-24T10:12:26;98365.56;;;23.63;42.36
22753;BME280;11543;43.144;24.684;2023-04-24T10:14:53;98362.97;;;23.73;42.02
22753;BME280;11543;43.144;24.684;2023-04-24T10:17:21;98372.09;;;23.78;41.15
22753;BME280;11543;43.144;24.684;2023-04-24T10:20:29;98375.66;;;23.79;40.36
22753;BME280;11543;43.144;24.684;2023-04-24T10:23:08;98368.19;;;23.74;39.75
22753;BME280;11543;43.144;24.684;2023-04-24T10:25:39;98353.91;;;23.72;40.51
22753;BME280;11543;43.144;24.684;2023-04-24T10:28:10;98352.41;;;23.81;41.65
22753;BME280;11543;43.144;24.684;2023-04-24T10:30:35;98346.75;;;23.88;40.24
22753;BME280;11543;43.144;24.684;2023-04-24T10:33:07;98343.69;;;23.85;41.09
22753;BME280;11543;43.144;24.684;2023-04-24T10:35:42;98352.34;;;23.98;40.80
22753;BME280;11543;43.144;24.684;2023-04-24T10:38:29;98341.53;;;24.08;42.11
22753;BME280;11543;43.144;24.684;2023-04-24T10:41:16;98350.13;;;24.17;41.04
22753;BME280;11543;43.144;24.684;2023-04-24T10:43:48;98316.81;;;24.03;41.92
22753;BME280;11543;43.144;24.684;2023-04-24T10:49:31;98334.19;;;24.31;40.78
22753;BME280;11543;43.144;24.684;2023-04-24T10:52:04;98334.13;;;24.48;41.13
22753;BME280;11543;43.144;24.684;2023-04-24T10:54:48;98312.94;;;24.43;41.32
22753;BME280;11543;43.144;24.684;2023-04-24T11:00:10;98315.06;;;24.63;41.37
22753;BME280;11543;43.144;24.684;2023-04-24T11:02:58;98326.03;;;24.90;41.05
22753;BME280;11543;43.144;24.684;2023-04-24T11:08:49;98304.19;;;25.00;41.20
22753;BME280;11543;43.144;24.684;2023-04-24T11:11:44;98312.53;;;25.10;40.84
22753;BME280;11543;43.144;24.684;2023-04-24T11:30:53;98286.06;;;25.68;36.71
22753;BME280;11543;43.144;24.684;2023-04-24T11:33:41;98281.34;;;25.63;37.24
22753;BME280;11543;43.144;24.684;2023-04-24T11:36:48;98277.19;;;25.61;36.71
22753;BME280;11543;43.144;24.684;2023-04-24T15:50:05;98131.41;;;17.86;73.16
22753;BME280;11543;43.144;24.684;2023-04-24T16:19:41;98071.44;;;18.19;71.45
22753;BME280;11543;43.144;24.684;2023-04-24T16:22:07;98046.06;;;18.07;70.88
22753;BME280;11543;43.144;24.684;2023-04-24T16:24:33;98039.44;;;18.03;70.57
22753;BME280;11543;43.144;24.684;2023-04-24T16:26:59;98040.66;;;18.07;70.15
22753;BME280;11543;43.144;24.684;2023-04-24T16:29:29;98062.25;;;18.20;70.06
22753;BME280;11543;43.144;24.684;2023-04-24T16:32:11;98031.59;;;18.13;69.69
22753;BME280;11543;43.144;24.684;2023-04-24T16:34:37;98043.88;;;18.22;68.41
22753;BME280;11543;43.144;24.684;2023-04-24T16:37:30;98062.91;;;18.40;67.97
22753;BME280;11543;43.144;24.684;2023-04-24T16:39:58;98047.56;;;18.28;68.01
22753;BME280;11543;43.144;24.684;2023-04-24T16:42:27;98043.03;;;18.22;67.37
22753;BME280;11543;43.144;24.684;2023-04-24T16:45:02;98039.59;;;18.08;67.23
22753;BME280;11543;43.144;24.684;2023-04-24T16:47:31;98041.91;;;18.04;66.65
22753;BME280;11543;43.144;24.684;2023-04-24T16:50:43;98042.53;;;18.06;65.94
22753;BME280;11543;43.144;24.684;2023-04-24T16:53:17;98038.22;;;17.99;65.71
22753;BME280;11543;43.144;24.684;2023-04-24T17:06:06;98044.78;;;18.09;64.19
22753;BME280;11543;43.144;24.684;2023-04-24T17:16:05;98057.97;;;17.81;65.05
22753;BME280;11543;43.144;24.684;2023-04-24T17:18:31;98052.59;;;17.74;64.92
22753;BME280;11543;43.144;24.684;2023-04-24T17:21:30;98036.72;;;17.78;64.59
22753;BME280;11543;43.144;24.684;2023-04-24T17:24:16;98047.53;;;17.85;63.96
22753;BME280;11543;43.144;24.684;2023-04-24T17:30:34;98057.38;;;17.79;63.73
22753;BME280;11543;43.144;24.684;2023-04-24T17:33:11;98044.38;;;17.56;64.20
22753;BME280;11543;43.144;24.684;2023-04-24T17:35:53;98083.94;;;17.70;64.32
22753;BME280;11543;43.144;24.684;2023-04-24T17:45:26;98104.72;;;17.45;65.02
22753;BME280;11543;43.144;24.684;2023-04-24T17:51:48;98112.41;;;17.48;64.96
22753;BME280;11543;43.144;24.684;2023-04-24T17:54:17;98106.63;;;17.38;65.10
22753;BME280;11543;43.144;24.684;2023-04-24T17:57:00;98103.59;;;17.14;65.72
22753;BME280;11543;43.144;24.684;2023-04-24T18:03:12;98118.38;;;17.18;65.88
22753;BME280;11543;43.144;24.684;2023-04-24T18:06:30;98145.91;;;17.15;66.15
22753;BME280;11543;43.144;24.684;2023-04-24T18:13:01;98162.06;;;16.58;70.52
22753;BME280;11543;43.144;24.684;2023-04-24T18:16:03;98189.38;;;16.76;69.94
22753;BME280;11543;43.144;24.684;2023-04-24T18:39:56;98180.34;;;15.42;81.47
22753;BME280;11543;43.144;24.684;2023-04-24T18:42:21;98202.38;;;15.39;83.20
22753;BME280;11543;43.144;24.684;2023-04-24T18:44:47;98193.56;;;15.23;84.28
22753;BME280;11543;43.144;24.684;2023-04-24T18:47:13;98200.25;;;15.27;85.12
22753;BME280;11543;43.144;24.684;2023-04-24T18:49:39;98230.59;;;15.29;86.08
22753;BME280;11543;43.144;24.684;2023-04-24T18:52:05;98220.78;;;15.22;86.78
22753;BME280;11543;43.144;24.684;2023-04-24T18:54:30;98220.31;;;15.12;87.67
22753;BME280;11543;43.144;24.684;2023-04-24T18:56:56;98206.38;;;15.08;88.14
22753;BME280;11543;43.144;24.684;2023-04-24T18:59:21;98210.94;;;15.08;88.63
22753;BME280;11543;43.144;24.684;2023-04-24T19:01:47;98222.81;;;15.13;89.45
22753;BME280;11543;43.144;24.684;2023-04-24T19:04:13;98226.03;;;15.30;88.88
22753;BME280;11543;43.144;24.684;2023-04-24T19:06:39;98217.31;;;15.35;88.52
22753;BME280;11543;43.144;24.684;2023-04-24T19:09:05;98226.97;;;15.57;87.54
22753;BME280;11543;43.144;24.684;2023-04-24T19:11:31;98219.59;;;15.72;85.71
22753;BME280;11543;43.144;24.684;2023-04-24T19:13:56;98208.00;;;15.85;82.99
22753;BME280;11543;43.144;24.684;2023-04-24T19:16:24;98218.63;;;16.00;81.88
22753;BME280;11543;43.144;24.684;2023-04-24T19:18:50;98214.72;;;16.22;80.33
22753;BME280;11543;43.144;24.684;2023-04-24T19:21:15;98210.78;;;16.31;79.33
22753;BME280;11543;43.144;24.684;2023-04-24T19:23:59;98198.91;;;16.32;78.33
22753;BME280;11543;43.144;24.684;2023-04-24T19:26:25;98212.25;;;16.47;77.28
22753;BME280;11543;43.144;24.684;2023-04-24T19:32:35;98220.19;;;16.62;76.78
22753;BME280;11543;43.144;24.684;2023-04-24T19:35:04;98208.09;;;16.64;76.55
22753;BME280;11543;43.144;24.684;2023-04-24T19:37:36;98203.31;;;16.60;77.06
22753;BME280;11543;43.144;24.684;2023-04-24T19:43:12;98188.09;;;16.59;76.79
22753;BME280;11543;43.144;24.684;2023-04-24T19:45:38;98192.69;;;16.65;76.44
22753;BME280;11543;43.144;24.684;2023-04-24T19:48:07;98201.25;;;16.75;76.20
22753;BME280;11543;43.144;24.684;2023-04-24T19:50:47;98176.03;;;16.68;75.90
22753;BME280;11543;43.144;24.684;2023-04-24T19:53:33;98182.28;;;16.75;75.68
22753;BME280;11543;43.144;24.684;2023-04-24T20:09:31;98163.91;;;16.37;76.21
22753;BME280;11543;43.144;24.684;2023-04-24T20:11:57;98180.16;;;16.44;76.68
22753;BME280;11543;43.144;24.684;2023-04-24T20:14:25;98180.59;;;16.34;77.10
22753;BME280;11543;43.144;24.684;2023-04-24T20:16:51;98162.25;;;16.16;77.47
22753;BME280;11543;43.144;24.684;2023-04-24T20:19:20;98165.16;;;16.15;77.80
22753;BME280;11543;43.144;24.684;2023-04-24T20:21:46;98168.91;;;16.20;78.11
22753;BME280;11543;43.144;24.684;2023-04-24T20:24:12;98163.09;;;16.17;77.94
22753;BME280;11543;43.144;24.684;2023-04-24T20:26:38;98151.84;;;16.20;77.99
22753;BME280;11543;43.144;24.684;2023-04-24T20:29:04;98153.09;;;16.24;78.32
22753;BME280;11543;43.144;24.684;2023-04-24T20:31:31;98156.84;;;16.23;78.15
22753;BME280;11543;43.144;24.684;2023-04-24T20:33:56;98150.59;;;16.22;77.93
22753;BME280;11543;43.144;24.684;2023-04-24T20:36:22;98162.69;;;16.33;77.70
22753;BME280;11543;43.144;24.684;2023-04-24T20:38:48;98157.25;;;16.33;77.77
22753;BME280;11543;43.144;24.684;2023-04-24T20:41:13;98133.94;;;16.19;77.86
22753;BME280;11543;43.144;24.684;2023-04-24T20:43:40;98163.50;;;16.34;77.60
22753;BME280;11543;43.144;24.684;2023-04-24T20:46:06;98149.34;;;16.25;77.67